Oberlin, Louisiana
Current Conditions -  °F | °C
As of 3:35 PM on Friday 24 Oct 2014 (Local Time) from KACP Reporting Station
Clear Clear  
Wind Chill: 75°   Ceiling: Unl
Heat Index: 75°   Visibility: 10mi
Dew Point: 47°   Wind: 8mph
Humidity: 37%   Direction: 340°NNW
Pressure: 30.09"   Gusts: NA
Location:  30.62°N, 92.76°W
Report Text: KACP 242035Z AUTO 34007KT 10SM CLR 24/09 A3009 RMK AO2 T02400085
Loading
Personal Weather Stations






























Interactive Weather Map
Tropical Storm Tracking
New forecast layout! Learn more

10-Day Weather Forecast

Advertisements
Track Severe Weather on mobile